Palmyra, Maine
Current Conditions -  °F | °C
As of 11:55 PM on Saturday 27 Dec 2014 (Local Time) from KWVL Reporting Station
Overcast Overcast  
Wind Chill: 36°   Ceiling: 5000
Heat Index: 36°   Visibility: 10mi
Dew Point: 28°   Wind: 3mph
Humidity: 75%   Direction: 190°S
Pressure: 29.89"   Gusts: NA
Location:  44.85°N, 69.36°W
Report Text: KWVL 280455Z 19003KT 10SM OVC050 02/M02 A2989 RMK AO1
Loading
Personal Weather Stations






























Interactive Weather Map New forecast layout! Learn more

10-Day Weather Forecast

Advertisements
Track Severe Weather on mobile